Time;durP1;ratioP1;P1;durP2;ratioP2;P2;SDS_P1;SDS_P2;PMS_P1;PMS_P2;Temp;Humidity;BMP_temperature;BMP_pressure;BME280_temperature;BME280_humidity;BME280_pressure;Samples;Min_cycle;Max_cycle;Signal;HPM_P1;HPM_P2
2022/08/24 00:00:35;;;;;;;3.42;0.93;;;20.80;90.30;;;;;;10297043;28;20050;-67
2022/08/24 00:05:37;;;;;;;9.05;0.77;;;20.70;90.40;;;;;;10296006;28;20055;-63
2022/08/24 00:10:40;;;;;;;1.52;0.60;;;20.70;90.70;;;;;;10291787;28;20054;-63
2022/08/24 00:15:43;;;;;;;1.48;0.65;;;20.60;90.90;;;;;;10288129;28;20510;-63
2022/08/24 00:20:44;;;;;;;3.05;0.68;;;20.60;91.20;;;;;;10290984;28;20038;-66
2022/08/24 00:25:46;;;;;;;1.95;0.60;;;20.50;91.30;;;;;;10292279;28;20053;-67
2022/08/24 00:30:48;;;;;;;0.80;0.60;;;20.50;91.50;;;;;;10283685;28;20051;-67
2022/08/24 00:35:50;;;;;;;1.25;0.63;;;20.40;91.70;;;;;;10288651;28;20050;-66
2022/08/24 00:40:52;;;;;;;1.25;0.65;;;20.30;92.00;;;;;;10292480;28;20090;-67
2022/08/24 00:46:09;;;;;;;2.38;0.60;;;20.20;92.30;;;;;;10295762;28;20161;-66
2022/08/24 00:51:17;;;;;;;2.10;0.57;;;20.10;92.50;;;;;;10290008;28;20428;-66
2022/08/24 00:56:25;;;;;;;1.02;0.50;;;20.00;92.80;;;;;;10288098;28;20050;-65
2022/08/24 01:01:28;;;;;;;1.52;0.60;;;19.90;93.10;;;;;;10288137;28;20050;-66
2022/08/24 01:06:32;;;;;;;1.77;0.65;;;19.90;93.40;;;;;;10291318;28;20078;-67
2022/08/24 01:11:34;;;;;;;1.55;0.50;;;19.80;93.70;;;;;;10291690;28;20049;-68
2022/08/24 01:22:39;;;;;;;5.10;0.80;;;19.70;94.50;;;;;;10292527;28;20072;-66
2022/08/24 01:27:42;;;;;;;1.52;0.60;;;19.60;95.00;;;;;;10274173;28;20046;-63
2022/08/24 01:32:54;;;;;;;1.85;0.50;;;19.50;95.30;;;;;;10289233;28;20457;-63
2022/08/24 01:38:00;;;;;;;1.90;0.70;;;19.50;95.50;;;;;;10270414;28;20116;-63
2022/08/24 01:43:06;;;;;;;2.83;0.60;;;19.30;96.10;;;;;;10257690;28;20061;-63
2022/08/24 01:48:07;;;;;;;1.17;0.60;;;19.20;96.40;;;;;;10282592;28;20137;-63
2022/08/24 01:53:09;;;;;;;2.50;0.57;;;19.20;96.80;;;;;;10289418;28;20058;-63
2022/08/24 01:58:12;;;;;;;0.75;0.50;;;19.10;97.10;;;;;;10285841;28;20468;-63
2022/08/24 02:03:13;;;;;;;2.90;0.57;;;19.10;97.70;;;;;;10284248;28;20339;-63
2022/08/24 02:08:15;;;;;;;0.98;0.50;;;19.00;97.80;;;;;;10283712;28;20050;-64
2022/08/24 02:13:17;;;;;;;0.98;0.50;;;18.90;98.20;;;;;;10282215;28;20065;-65
2022/08/24 02:18:19;;;;;;;1.38;0.60;;;18.90;98.50;;;;;;10277365;28;20186;-65
2022/08/24 02:23:21;;;;;;;1.38;0.60;;;18.90;98.90;;;;;;10287119;28;20386;-63
2022/08/24 02:28:23;;;;;;;1.60;0.60;;;18.80;99.20;;;;;;10289793;28;20399;-63
2022/08/24 02:33:25;;;;;;;1.75;0.52;;;18.70;99.70;;;;;;10280374;28;20047;-63
2022/08/24 02:38:27;;;;;;;1.33;0.52;;;18.60;99.90;;;;;;10274437;28;20633;-63
2022/08/24 02:43:29;;;;;;;1.38;0.55;;;18.60;99.90;;;;;;10292441;28;20489;-63
2022/08/24 02:48:31;;;;;;;1.42;1.27;;;18.50;99.90;;;;;;10284484;28;20768;-64
2022/08/24 02:53:33;;;;;;;2.13;0.60;;;18.40;99.90;;;;;;10291006;28;20109;-62
2022/08/24 02:58:34;;;;;;;2.35;0.57;;;18.30;99.90;;;;;;10293298;28;20073;-63
2022/08/24 03:03:36;;;;;;;0.60;0.50;;;18.30;99.90;;;;;;10277267;28;20273;-62
2022/08/24 03:08:38;;;;;;;1.00;0.45;;;18.20;99.90;;;;;;10288454;28;20054;-63
2022/08/24 03:13:40;;;;;;;1.15;0.47;;;18.10;99.90;;;;;;10287571;28;20170;-63
2022/08/24 03:18:42;;;;;;;2.28;0.40;;;18.10;99.90;;;;;;10283582;28;20125;-62
2022/08/24 03:23:45;;;;;;;3.13;0.40;;;18.10;99.90;;;;;;10295675;28;20427;-62
2022/08/24 03:28:46;;;;;;;1.98;0.45;;;18.10;99.90;;;;;;10294725;28;20052;-62
2022/08/24 03:33:50;;;;;;;0.60;0.50;;;18.10;99.90;;;;;;10292503;28;20078;-62
2022/08/24 03:38:51;;;;;;;2.95;0.57;;;18.00;99.90;;;;;;10292249;28;20073;-62
2022/08/24 03:43:55;;;;;;;0.68;0.40;;;18.00;99.90;;;;;;10292380;28;20054;-62
2022/08/24 03:48:58;;;;;;;0.70;0.40;;;18.00;99.90;;;;;;10292920;28;20556;-66
2022/08/24 03:54:00;;;;;;;2.28;0.80;;;18.00;99.90;;;;;;10285727;28;21392;-66
2022/08/24 03:59:03;;;;;;;2.22;0.50;;;17.90;99.90;;;;;;10290087;28;20043;-65
2022/08/24 04:04:05;;;;;;;2.28;0.60;;;17.90;99.90;;;;;;10288528;28;20489;-65
2022/08/24 04:09:06;;;;;;;3.60;0.65;;;17.90;99.90;;;;;;10286924;28;20274;-64
2022/08/24 04:14:09;;;;;;;7.75;0.70;;;17.90;99.90;;;;;;10260016;28;20058;-64
2022/08/24 04:19:28;;;;;;;1.23;0.50;;;17.80;99.90;;;;;;10246257;28;20047;-66
2022/08/24 04:24:30;;;;;;;1.83;0.50;;;17.80;99.90;;;;;;10250036;28;20066;-66
2022/08/24 04:29:32;;;;;;;2.67;0.63;;;17.80;99.90;;;;;;10254267;28;20043;-62
2022/08/24 04:34:35;;;;;;;6.20;1.58;;;17.80;99.90;;;;;;10253025;28;20106;-62
2022/08/24 04:39:37;;;;;;;7.43;0.90;;;17.80;99.90;;;;;;10239526;28;20055;-62
2022/08/24 04:44:40;;;;;;;5.18;1.15;;;17.80;99.90;;;;;;10251106;28;20078;-62
2022/08/24 04:49:41;;;;;;;4.82;0.63;;;17.80;99.90;;;;;;10245613;28;20042;-62
2022/08/24 04:54:43;;;;;;;4.53;0.68;;;17.70;99.90;;;;;;10261083;28;20051;-62
2022/08/24 04:59:45;;;;;;;4.32;0.80;;;17.80;99.90;;;;;;10251803;28;20046;-62
2022/08/24 05:04:47;;;;;;;2.70;0.70;;;17.80;99.90;;;;;;10253970;28;20494;-62
2022/08/24 05:09:49;;;;;;;5.05;1.25;;;17.80;99.90;;;;;;10248615;28;20047;-59
2022/08/24 05:14:53;;;;;;;1.85;0.70;;;17.80;99.90;;;;;;10276466;28;20062;-59
2022/08/24 05:19:57;;;;;;;2.58;0.88;;;17.90;99.90;;;;;;10287832;28;20061;-59
2022/08/24 05:24:59;;;;;;;1.00;0.50;;;17.90;99.90;;;;;;10289456;28;20051;-58
2022/08/24 05:30:02;;;;;;;6.25;1.27;;;18.00;99.90;;;;;;10289696;28;20058;-59
2022/08/24 05:35:05;;;;;;;6.70;1.30;;;18.10;99.90;;;;;;10292671;28;20461;-59
2022/08/24 05:40:10;;;;;;;1.30;0.52;;;18.20;99.90;;;;;;10287184;28;20055;-58
2022/08/24 05:45:12;;;;;;;2.38;0.60;;;18.30;99.90;;;;;;10282359;28;20050;-59
2022/08/24 05:50:13;;;;;;;4.55;0.77;;;18.40;99.90;;;;;;10291355;28;20053;-60
2022/08/24 05:55:15;;;;;;;1.67;0.47;;;18.60;99.90;;;;;;10296239;28;20057;-60
2022/08/24 06:00:17;;;;;;;4.32;0.50;;;18.70;99.90;;;;;;10290467;28;20080;-60
2022/08/24 06:05:19;;;;;;;1.17;0.50;;;18.90;99.90;;;;;;10285371;28;20043;-61
2022/08/24 06:10:20;;;;;;;1.40;0.60;;;19.00;99.90;;;;;;10288850;28;20054;-61
2022/08/24 06:15:39;;;;;;;2.53;0.88;;;19.20;99.90;;;;;;10292260;28;20433;-61
2022/08/24 06:20:41;;;;;;;1.52;0.50;;;19.50;99.90;;;;;;10293626;28;20106;-61
2022/08/24 06:31:07;;;;;;;1.80;0.90;;;19.80;99.90;;;;;;10287728;28;20054;-61
2022/08/24 06:36:09;;;;;;;1.77;0.77;;;20.00;99.90;;;;;;10289030;28;21063;-60
2022/08/24 06:41:11;;;;;;;3.05;0.50;;;20.20;99.90;;;;;;10287040;28;20053;-62
2022/08/24 06:46:13;;;;;;;4.47;0.50;;;20.30;99.90;;;;;;10294224;28;20045;-62
2022/08/24 06:51:17;;;;;;;0.77;0.40;;;20.50;99.90;;;;;;10297268;28;20051;-61
2022/08/24 06:56:19;;;;;;;1.58;0.50;;;20.70;99.90;;;;;;10294708;28;20058;-60
2022/08/24 07:01:24;;;;;;;2.42;0.40;;;20.80;99.90;;;;;;10292062;28;20396;-61
2022/08/24 07:06:27;;;;;;;6.50;0.60;;;21.00;99.90;;;;;;10298204;28;20078;-61
2022/08/24 07:11:29;;;;;;;3.38;0.60;;;21.20;99.90;;;;;;10280787;28;20425;-61
2022/08/24 07:16:31;;;;;;;2.40;0.50;;;21.40;99.90;;;;;;10249007;28;20047;-63
2022/08/24 07:21:33;;;;;;;1.30;0.43;;;21.60;99.90;;;;;;10261869;28;20402;-62
2022/08/24 07:26:36;;;;;;;2.20;0.40;;;21.90;99.90;;;;;;10260141;28;20043;-63
2022/08/24 07:31:38;;;;;;;2.88;0.50;;;22.00;99.90;;;;;;10260234;28;20047;-62
2022/08/24 07:36:40;;;;;;;0.52;0.40;;;22.20;99.90;;;;;;10258287;28;20078;-63
2022/08/24 07:41:45;;;;;;;2.80;0.40;;;22.40;99.90;;;;;;10259815;28;20558;-64
2022/08/24 07:47:06;;;;;;;3.88;0.47;;;22.50;99.90;;;;;;10262872;28;20482;-64
2022/08/24 07:52:28;;;;;;;0.60;0.30;;;22.70;99.90;;;;;;10248725;28;20518;-63
2022/08/24 07:57:30;;;;;;;6.00;0.45;;;22.90;99.90;;;;;;10254403;28;23551;-63
2022/08/24 08:02:32;;;;;;;2.83;0.50;;;23.10;99.90;;;;;;10255729;28;20055;-65
2022/08/24 08:07:37;;;;;;;2.28;0.50;;;23.30;99.90;;;;;;10258803;28;20050;-62
2022/08/24 08:12:39;;;;;;;0.70;0.50;;;23.40;99.90;;;;;;10249384;28;20494;-63
2022/08/24 08:17:40;;;;;;;6.35;0.73;;;23.60;99.90;;;;;;10251510;28;20061;-60
2022/08/24 08:28:04;;;;;;;4.65;0.70;;;23.80;99.60;;;;;;10253370;28;20051;-59
2022/08/24 08:33:26;;;;;;;5.85;0.73;;;24.00;99.50;;;;;;10250888;28;20057;-60
2022/08/24 08:38:28;;;;;;;1.08;0.40;;;24.30;99.00;;;;;;10247478;28;21206;-59
2022/08/24 08:43:41;;;;;;;4.05;0.60;;;24.40;98.00;;;;;;10248003;28;20158;-59
2022/08/24 08:49:01;;;;;;;2.95;0.55;;;24.50;98.20;;;;;;10257514;28;20050;-60
2022/08/24 08:54:19;;;;;;;5.15;0.50;;;24.80;97.70;;;;;;10254998;28;20058;-60
2022/08/24 08:59:39;;;;;;;3.05;0.50;;;24.90;96.70;;;;;;10243081;28;20052;-60
2022/08/24 09:04:59;;;;;;;2.05;0.40;;;25.20;97.00;;;;;;10241313;28;20069;-60
2022/08/24 09:10:07;;;;;;;4.85;0.50;;;25.40;96.10;;;;;;10246919;28;20154;-60
2022/08/24 09:15:41;;;;;;;1.17;0.40;;;25.60;95.30;;;;;;10248289;28;20106;-59
2022/08/24 09:21:15;;;;;;;4.28;0.50;;;25.90;95.80;;;;;;10246294;28;20059;-59
2022/08/24 09:26:22;;;;;;;1.77;0.47;;;26.10;94.60;;;;;;10254094;28;20043;-59
2022/08/24 09:31:46;;;;;;;3.40;0.40;;;26.40;94.50;;;;;;10258182;28;20455;-59
2022/08/24 09:36:53;;;;;;;0.93;0.30;;;26.60;92.90;;;;;;10251106;28;20494;-60
2022/08/24 09:42:17;;;;;;;0.60;0.40;;;26.80;93.40;;;;;;10254013;28;20383;-60
2022/08/24 09:47:33;;;;;;;3.17;0.40;;;27.10;92.20;;;;;;10256585;28;20054;-60
2022/08/24 09:52:56;;;;;;;2.60;0.40;;;27.30;92.50;;;;;;10252891;28;20042;-60
2022/08/24 09:58:12;;;;;;;2.65;0.30;;;27.50;91.40;;;;;;10245666;28;20047;-60
2022/08/24 10:03:51;;;;;;;3.38;0.40;;;27.60;90.60;;;;;;10253803;28;20098;-60
2022/08/24 10:09:15;;;;;;;4.57;0.50;;;27.90;90.90;;;;;;10256204;28;20074;-65
2022/08/24 10:14:30;;;;;;;3.85;0.40;;;28.00;90.10;;;;;;10248640;28;20130;-64
2022/08/24 10:20:00;;;;;;;0.73;0.40;;;28.10;89.10;;;;;;10261779;28;20050;-65
2022/08/24 10:25:22;;;;;;;2.40;0.30;;;28.50;88.80;;;;;;10261874;28;20348;-65
2022/08/24 10:30:46;;;;;;;3.10;0.40;;;29.40;87.50;;;;;;10256279;28;20063;-65
2022/08/24 10:36:12;;;;;;;2.25;0.70;;;30.50;83.90;;;;;;10246187;28;20108;-65
2022/08/24 10:41:29;;;;;;;1.52;0.38;;;31.50;80.70;;;;;;10240822;28;20035;-64
2022/08/24 10:46:58;;;;;;;0.77;0.30;;;31.70;76.50;;;;;;10261423;28;20051;-64
2022/08/24 10:52:38;;;;;;;0.80;0.30;;;32.00;74.30;;;;;;10254855;28;20043;-64
2022/08/24 10:58:17;;;;;;;4.97;0.40;;;31.90;73.80;;;;;;10253109;28;20069;-64
2022/08/24 11:03:25;;;;;;;4.47;0.68;;;31.90;74.40;;;;;;10241521;28;20109;-64
2022/08/24 11:08:33;;;;;;;0.52;0.30;;;32.10;71.20;;;;;;10254516;28;20654;-63
2022/08/24 11:13:48;;;;;;;6.15;0.70;;;32.10;71.20;;;;;;10265406;28;20703;-64
2022/08/24 11:18:55;;;;;;;8.80;0.40;;;32.10;70.50;;;;;;10256670;28;20118;-64
2022/08/24 11:24:02;;;;;;;2.63;0.40;;;32.00;69.60;;;;;;10263626;28;20057;-64
2022/08/24 11:29:04;;;;;;;1.50;0.30;;;31.50;66.20;;;;;;10257969;28;20046;-64
2022/08/24 11:34:14;;;;;;;1.75;0.30;;;31.50;68.40;;;;;;10247991;28;20078;-64
2022/08/24 11:39:34;;;;;;;1.05;0.30;;;31.70;67.00;;;;;;10249923;28;20438;-64
2022/08/24 11:44:48;;;;;;;3.00;0.30;;;31.90;66.90;;;;;;10241894;28;20495;-64
2022/08/24 11:49:56;;;;;;;;;;;32.10;66.90;;;;;;10256735;28;20050;-64
2022/08/24 11:55:13;;;;;;;1.42;0.30;;;32.40;66.30;;;;;;10259522;28;19965;-64
2022/08/24 12:00:22;;;;;;;0.82;0.20;;;32.00;62.50;;;;;;10257342;28;20521;-64
2022/08/24 12:05:43;;;;;;;1.92;0.40;;;32.10;63.00;;;;;;10252153;28;20121;-64
2022/08/24 12:11:08;;;;;;;0.63;0.28;;;32.10;62.70;;;;;;10254577;28;20047;-64
2022/08/24 12:16:23;;;;;;;0.98;0.50;;;32.10;62.70;;;;;;10248997;28;20047;-64
2022/08/24 12:21:31;;;;;;;2.78;0.30;;;31.70;64.10;;;;;;10254427;28;20059;-64
2022/08/24 12:26:49;;;;;;;0.57;0.30;;;31.80;62.90;;;;;;10250263;28;20051;-64
2022/08/24 12:32:11;;;;;;;2.35;0.30;;;31.90;63.70;;;;;;10259460;28;20055;-65
2022/08/24 12:37:37;;;;;;;12.77;0.40;;;31.70;63.40;;;;;;10252095;28;20055;-65
2022/08/24 12:42:48;;;;;;;3.22;0.55;;;31.90;64.70;;;;;;10249206;28;20109;-64
2022/08/24 12:48:07;;;;;;;2.57;0.57;;;31.80;63.10;;;;;;10232961;28;20066;-65
2022/08/24 12:53:11;;;;;;;5.57;0.70;;;31.70;62.80;;;;;;10238904;28;20039;-64
2022/08/24 12:58:39;;;;;;;6.50;0.60;;;31.80;65.40;;;;;;10248822;28;20043;-64
2022/08/24 13:04:29;;;;;;;1.65;0.30;;;31.90;64.60;;;;;;10249892;28;20058;-63
2022/08/24 13:09:34;;;;;;;2.47;0.40;;;32.10;63.80;;;;;;10206336;28;20474;-65
2022/08/24 13:14:36;;;;;;;2.22;0.30;;;32.10;62.90;;;;;;10280454;28;20409;-65
2022/08/24 13:19:44;;;;;;;2.45;0.82;;;32.30;62.40;;;;;;10289213;28;20050;-64
2022/08/24 13:24:52;;;;;;;2.55;0.30;;;32.50;62.40;;;;;;10283848;28;20859;-65
2022/08/24 13:30:18;;;;;;;1.42;0.30;;;32.90;64.20;;;;;;10294874;28;20042;-64
2022/08/24 13:35:55;;;;;;;0.95;0.75;;;33.30;61.70;;;;;;10285699;28;20484;-64
2022/08/24 13:41:05;;;;;;;1.80;0.50;;;33.50;59.70;;;;;;10292078;28;20061;-64
2022/08/24 13:46:31;;;;;;;2.85;0.30;;;33.90;60.20;;;;;;10246415;28;20050;-63
2022/08/24 13:51:41;;;;;;;3.08;0.30;;;34.10;59.80;;;;;;10289082;28;20568;-65
2022/08/24 13:57:12;;;;;;;1.88;0.30;;;34.30;59.00;;;;;;10287482;28;20047;-64
2022/08/24 14:02:17;;;;;;;0.30;0.30;;;34.60;59.30;;;;;;10284931;28;20133;-65
2022/08/24 14:07:32;;;;;;;2.08;0.65;;;34.60;57.70;;;;;;10293234;28;20062;-63
2022/08/24 14:13:11;;;;;;;1.30;0.50;;;34.80;57.50;;;;;;10283969;28;20054;-62
2022/08/24 14:18:36;;;;;;;0.73;0.30;;;34.60;56.40;;;;;;10230409;28;20050;-61
2022/08/24 14:23:51;;;;;;;1.50;0.30;;;35.00;56.20;;;;;;10294243;28;20554;-61
2022/08/24 14:28:53;;;;;;;0.70;0.45;;;35.10;57.60;;;;;;10288664;28;20413;-62
2022/08/24 14:34:23;;;;;;;1.75;0.30;;;35.30;57.40;;;;;;10277543;28;20054;-62
2022/08/24 14:39:37;;;;;;;1.17;0.30;;;35.20;56.20;;;;;;10269498;28;20046;-62
2022/08/24 14:45:01;;;;;;;1.38;0.40;;;35.00;56.30;;;;;;10292748;28;20054;-62
2022/08/24 14:50:09;;;;;;;3.60;0.47;;;35.50;56.60;;;;;;10289140;28;20094;-63
2022/08/24 14:55:33;;;;;;;1.58;0.40;;;35.70;56.00;;;;;;10284333;28;20153;-60
2022/08/24 15:01:02;;;;;;;0.88;0.30;;;35.60;55.30;;;;;;10291840;28;20585;-61
2022/08/24 15:06:35;;;;;;;1.38;0.32;;;35.50;55.50;;;;;;10283585;28;20063;-60
2022/08/24 15:11:40;;;;;;;3.28;0.40;;;35.30;54.70;;;;;;10286465;28;20130;-60
2022/08/24 15:16:52;;;;;;;1.65;0.40;;;35.30;55.00;;;;;;10293782;28;20050;-59
2022/08/24 15:22:12;;;;;;;1.83;0.43;;;35.10;54.80;;;;;;10282755;28;20058;-60
2022/08/24 15:27:22;;;;;;;4.32;0.40;;;35.10;55.70;;;;;;10297149;28;20625;-60
2022/08/24 15:32:39;;;;;;;1.30;0.30;;;34.80;54.70;;;;;;10291568;28;20536;-60
2022/08/24 15:37:40;;;;;;;1.25;0.45;;;34.60;55.70;;;;;;10294409;28;20105;-60
2022/08/24 15:42:43;;;;;;;0.98;0.40;;;34.30;55.10;;;;;;10294148;28;20050;-61
2022/08/24 15:47:47;;;;;;;2.58;0.40;;;34.20;56.30;;;;;;10292947;28;20107;-61
2022/08/24 15:53:00;;;;;;;1.30;0.40;;;34.00;55.10;;;;;;10295677;28;20050;-61
2022/08/24 15:58:31;;;;;;;7.13;0.93;;;33.70;53.40;;;;;;10282601;28;20117;-60
2022/08/24 16:04:10;;;;;;;1.00;0.30;;;33.70;55.00;;;;;;10287192;28;20065;-61
2022/08/24 16:09:34;;;;;;;3.15;0.40;;;33.60;55.30;;;;;;10256611;28;20042;-61
2022/08/24 16:14:41;;;;;;;1.50;0.40;;;33.50;55.50;;;;;;10285884;28;20058;-60
2022/08/24 16:19:52;;;;;;;0.80;0.32;;;33.30;55.10;;;;;;10291869;28;20058;-60
2022/08/24 16:25:16;;;;;;;0.98;0.30;;;33.10;55.80;;;;;;10295804;28;20054;-64
2022/08/24 16:30:35;;;;;;;1.38;0.30;;;33.10;55.10;;;;;;10276706;28;20105;-63
2022/08/24 16:35:37;;;;;;;1.08;0.30;;;33.10;55.10;;;;;;10297425;28;20092;-63
2022/08/24 16:40:39;;;;;;;1.50;0.30;;;33.10;55.50;;;;;;10288175;28;20051;-62
2022/08/24 16:45:42;;;;;;;4.13;0.30;;;33.10;55.60;;;;;;10293499;28;20058;-62
2022/08/24 16:50:44;;;;;;;1.77;0.30;;;33.10;55.60;;;;;;10290993;28;20525;-63
2022/08/24 16:55:52;;;;;;;0.82;0.30;;;32.90;55.80;;;;;;10283457;28;20054;-64
2022/08/24 17:00:53;;;;;;;0.73;0.50;;;32.90;55.90;;;;;;10291806;28;20398;-62
2022/08/24 17:05:56;;;;;;;1.25;0.30;;;32.70;55.60;;;;;;10288264;28;20059;-62
2022/08/24 17:10:58;;;;;;;5.28;2.00;;;32.60;55.60;;;;;;10291269;28;20046;-62
2022/08/24 17:16:01;;;;;;;15.75;5.43;;;32.50;56.00;;;;;;10279556;28;20050;-62
2022/08/24 17:21:04;;;;;;;2.55;0.50;;;32.30;56.20;;;;;;10289081;28;22308;-62
2022/08/24 17:26:10;;;;;;;0.90;0.40;;;32.10;56.50;;;;;;10289113;28;20437;-62
2022/08/24 17:31:24;;;;;;;3.50;0.30;;;31.90;56.50;;;;;;10292662;28;20177;-62
2022/08/24 17:36:26;;;;;;;2.53;0.50;;;31.70;57.20;;;;;;10284677;28;20047;-62
2022/08/24 17:41:33;;;;;;;3.50;0.50;;;31.50;58.20;;;;;;10295081;28;20081;-62
2022/08/24 17:46:36;;;;;;;2.78;0.85;;;31.30;58.00;;;;;;10270635;28;20038;-62
2022/08/24 17:51:37;;;;;;;0.68;0.32;;;31.10;58.50;;;;;;10261793;28;20042;-63
2022/08/24 17:56:43;;;;;;;3.97;0.40;;;30.90;59.20;;;;;;10281502;28;20052;-63
2022/08/24 18:01:46;;;;;;;2.00;0.32;;;30.70;59.70;;;;;;10278711;28;20049;-66
2022/08/24 18:06:48;;;;;;;3.15;0.47;;;30.60;60.50;;;;;;10275640;28;20054;-64
2022/08/24 18:11:51;;;;;;;5.05;0.45;;;30.40;60.30;;;;;;10273636;28;20401;-64
2022/08/24 18:16:55;;;;;;;1.77;0.50;;;30.20;60.40;;;;;;10269509;28;20050;-64
2022/08/24 18:22:00;;;;;;;0.82;0.43;;;30.00;60.70;;;;;;10265141;28;20059;-64
2022/08/24 18:27:18;;;;;;;3.35;0.45;;;29.80;61.20;;;;;;10269177;28;20090;-64
2022/08/24 18:32:19;;;;;;;2.90;0.40;;;29.60;61.10;;;;;;10283714;28;20050;-64
2022/08/24 18:37:22;;;;;;;4.28;0.50;;;29.40;61.20;;;;;;10278562;28;20042;-63
2022/08/24 18:42:26;;;;;;;1.80;0.52;;;29.10;62.60;;;;;;10304716;28;20038;-62
2022/08/24 18:47:27;;;;;;;2.60;0.32;;;28.90;62.60;;;;;;10303424;28;20042;-62
2022/08/24 18:52:30;;;;;;;0.70;0.50;;;28.70;62.70;;;;;;10300242;28;20070;-62
2022/08/24 18:57:32;;;;;;;5.38;0.70;;;28.50;63.20;;;;;;10292283;28;20046;-61
2022/08/24 19:02:35;;;;;;;3.17;0.40;;;28.30;64.10;;;;;;10287958;28;20508;-61
2022/08/24 19:07:40;;;;;;;2.10;0.43;;;28.10;65.50;;;;;;10292194;28;20612;-59
2022/08/24 19:12:45;;;;;;;1.13;0.47;;;27.90;65.40;;;;;;10297926;28;20053;-59
2022/08/24 19:17:47;;;;;;;1.17;0.40;;;27.70;65.80;;;;;;10297254;28;20362;-60
2022/08/24 19:22:50;;;;;;;1.63;0.45;;;27.50;65.90;;;;;;10288056;28;20055;-59
2022/08/24 19:27:53;;;;;;;4.38;0.80;;;27.30;66.40;;;;;;10291059;28;20064;-60
2022/08/24 19:32:56;;;;;;;1.02;0.55;;;27.10;66.40;;;;;;10281485;28;20047;-59
2022/08/24 19:37:58;;;;;;;1.25;0.60;;;26.90;66.60;;;;;;10285549;28;20109;-59
2022/08/24 19:43:01;;;;;;;2.40;0.47;;;26.70;66.60;;;;;;10298691;28;20109;-59
2022/08/24 19:48:03;;;;;;;2.08;0.45;;;26.50;68.30;;;;;;10293423;28;20058;-59
2022/08/24 19:53:05;;;;;;;1.85;0.50;;;26.20;68.10;;;;;;10295397;28;20042;-60
2022/08/24 19:58:20;;;;;;;1.70;0.52;;;26.10;68.80;;;;;;10297956;28;20062;-59
2022/08/24 20:03:24;;;;;;;3.60;0.50;;;25.90;69.20;;;;;;10291277;28;20134;-59
2022/08/24 20:08:26;;;;;;;3.97;0.47;;;25.70;69.90;;;;;;10289628;28;20055;-60
2022/08/24 20:13:27;;;;;;;2.63;0.57;;;25.50;70.20;;;;;;10286499;28;20058;-59
2022/08/24 20:18:31;;;;;;;4.85;0.95;;;25.40;71.20;;;;;;10286684;28;20046;-59
2022/08/24 20:23:33;;;;;;;4.30;0.50;;;25.30;71.40;;;;;;10277207;28;23671;-60
2022/08/24 20:28:45;;;;;;;3.70;0.40;;;25.10;71.60;;;;;;10278652;28;20486;-60
2022/08/24 20:33:47;;;;;;;1.85;0.50;;;25.00;72.00;;;;;;10290757;28;20128;-60
2022/08/24 20:38:50;;;;;;;4.68;0.50;;;24.90;72.20;;;;;;10288104;28;20058;-59
2022/08/24 20:43:53;;;;;;;5.75;0.40;;;24.80;72.50;;;;;;10284312;28;20113;-60
2022/08/24 20:48:56;;;;;;;0.95;0.50;;;24.60;73.10;;;;;;10292414;28;20351;-64
2022/08/24 20:53:59;;;;;;;1.05;0.50;;;24.40;74.10;;;;;;10293386;28;20073;-64
2022/08/24 20:59:04;;;;;;;3.67;0.60;;;24.20;73.80;;;;;;10291849;28;20521;-64
2022/08/24 21:04:07;;;;;;;6.75;0.55;;;24.10;74.20;;;;;;10291609;28;20142;-64
2022/08/24 21:09:10;;;;;;;1.58;0.50;;;24.00;74.80;;;;;;10277095;28;20055;-64
2022/08/24 21:14:15;;;;;;;7.93;0.60;;;23.90;74.80;;;;;;10282557;28;21059;-63
2022/08/24 21:19:16;;;;;;;5.05;0.50;;;23.80;75.40;;;;;;10301119;28;20379;-63
2022/08/24 21:24:18;;;;;;;3.08;0.80;;;23.70;76.10;;;;;;10283639;28;20042;-65
2022/08/24 21:29:20;;;;;;;3.22;0.77;;;23.60;76.80;;;;;;10293424;28;20043;-64
2022/08/24 21:34:40;;;;;;;3.00;0.60;;;23.50;77.90;;;;;;10290219;28;20038;-63
2022/08/24 21:39:43;;;;;;;4.55;0.40;;;23.30;77.80;;;;;;10290715;28;20057;-64
2022/08/24 21:44:54;;;;;;;1.63;0.60;;;23.10;77.30;;;;;;10265191;28;20050;-64
2022/08/24 21:49:56;;;;;;;2.67;0.40;;;23.10;77.80;;;;;;10293390;28;20138;-64
2022/08/24 21:54:58;;;;;;;0.98;0.82;;;23.00;78.70;;;;;;10279919;28;20516;-63
2022/08/24 22:00:00;;;;;;;4.25;0.57;;;22.90;79.70;;;;;;10269020;28;20129;-64
2022/08/24 22:05:03;;;;;;;1.88;0.52;;;22.70;79.80;;;;;;10245326;28;20054;-63
2022/08/24 22:10:07;;;;;;;2.92;0.50;;;22.70;80.30;;;;;;10231288;28;20367;-63
2022/08/24 22:15:12;;;;;;;7.68;0.70;;;22.60;80.40;;;;;;10267024;28;20050;-64
2022/08/24 22:20:14;;;;;;;1.80;0.55;;;22.50;80.60;;;;;;10303290;28;20183;-65
2022/08/24 22:25:23;;;;;;;2.00;0.40;;;22.40;81.00;;;;;;10301915;28;20651;-64
2022/08/24 22:30:25;;;;;;;2.88;0.40;;;22.30;81.00;;;;;;10290113;28;20560;-64
2022/08/24 22:35:27;;;;;;;6.13;0.60;;;22.30;81.40;;;;;;10299781;28;20157;-65
2022/08/24 22:40:30;;;;;;;4.35;0.50;;;22.20;82.10;;;;;;10302147;28;20129;-65
2022/08/24 22:45:32;;;;;;;2.55;0.80;;;22.20;82.30;;;;;;10300811;28;20053;-64
2022/08/24 22:50:34;;;;;;;2.33;0.50;;;22.20;82.70;;;;;;10298832;28;20186;-65
2022/08/24 22:55:36;;;;;;;4.20;0.60;;;22.20;83.20;;;;;;10294990;28;20057;-64
2022/08/24 23:00:39;;;;;;;0.80;0.65;;;22.10;83.10;;;;;;10302372;28;24120;-64
2022/08/24 23:05:41;;;;;;;1.05;0.50;;;22.10;83.70;;;;;;10301859;28;20046;-64
2022/08/24 23:10:43;;;;;;;3.78;0.45;;;22.10;83.70;;;;;;10300980;28;20451;-64
2022/08/24 23:15:47;;;;;;;1.55;0.50;;;22.00;84.20;;;;;;10303058;28;20062;-64
2022/08/24 23:20:49;;;;;;;1.98;0.75;;;21.90;84.70;;;;;;10302006;28;20054;-65
2022/08/24 23:25:51;;;;;;;4.10;0.60;;;21.90;85.30;;;;;;10297422;28;20058;-64
2022/08/24 23:30:53;;;;;;;2.47;0.50;;;21.70;85.80;;;;;;10290168;28;20116;-64
2022/08/24 23:35:54;;;;;;;1.70;0.45;;;21.60;86.40;;;;;;10291410;28;20688;-64
2022/08/24 23:41:07;;;;;;;1.13;0.70;;;21.50;86.80;;;;;;10293130;28;20058;-64
2022/08/24 23:46:10;;;;;;;1.20;0.50;;;21.50;87.40;;;;;;10289795;28;20474;-65
2022/08/24 23:51:18;;;;;;;4.45;0.50;;;21.40;88.10;;;;;;10290993;28;20049;-64
2022/08/24 23:56:30;;;;;;;1.38;0.50;;;21.40;88.70;;;;;;10286404;28;20474;-64
